Clarksburg, West Virginia
Current Conditions -  °F | °C
As of 7:53 AM on Tuesday 21 Oct 2014 (Local Time) from KCKB Reporting Station
Overcast Overcast  
Wind Chill: 51°   Ceiling: 1100
Heat Index: 51°   Visibility: 10mi
Dew Point: 48°   Wind: 3mph
Humidity: 89%   Direction: 210°SSW
Pressure: 29.9"   Gusts: NA
Location:  39.28°N, 80.34°W
Report Text: KCKB 211153Z 21003KT 10SM OVC011 11/09 A2990 RMK AO2 SLP119 70001 T01060089 10111 20089 52006
Loading
Personal Weather Stations






























Interactive Weather Map New forecast layout! Learn more

10-Day Weather Forecast

Advertisements
Track Severe Weather on mobile